sensor_id;sensor_type;location;lat;lon;timestamp;P1;durP1;ratioP1;P2;durP2;ratioP2
18228;SDS011;9239;50.932;3.142;2022-10-31T00:02:04;6.37;;;5.73;;
18228;SDS011;9239;50.932;3.142;2022-10-31T00:04:32;5.93;;;5.33;;
18228;SDS011;9239;50.932;3.142;2022-10-31T00:07:00;8.07;;;5.47;;
18228;SDS011;9239;50.932;3.142;2022-10-31T00:09:27;7.13;;;5.23;;
18228;SDS011;9239;50.932;3.142;2022-10-31T00:11:53;9.17;;;5.73;;
18228;SDS011;9239;50.932;3.142;2022-10-31T00:14:21;6.20;;;5.63;;
18228;SDS011;9239;50.932;3.142;2022-10-31T00:16:48;5.90;;;5.30;;
18228;SDS011;9239;50.932;3.142;2022-10-31T00:19:15;6.80;;;5.50;;
18228;SDS011;9239;50.932;3.142;2022-10-31T00:21:42;5.43;;;4.93;;
18228;SDS011;9239;50.932;3.142;2022-10-31T00:24:10;6.37;;;5.10;;
18228;SDS011;9239;50.932;3.142;2022-10-31T00:26:37;8.27;;;6.00;;
18228;SDS011;9239;50.932;3.142;2022-10-31T00:29:04;6.20;;;5.60;;
18228;SDS011;9239;50.932;3.142;2022-10-31T00:31:31;7.03;;;5.67;;
18228;SDS011;9239;50.932;3.142;2022-10-31T00:33:58;6.27;;;5.67;;
18228;SDS011;9239;50.932;3.142;2022-10-31T00:36:27;6.43;;;5.60;;
18228;SDS011;9239;50.932;3.142;2022-10-31T00:38:54;8.30;;;6.03;;
18228;SDS011;9239;50.932;3.142;2022-10-31T00:41:23;6.53;;;5.67;;
18228;SDS011;9239;50.932;3.142;2022-10-31T00:43:50;7.23;;;5.97;;
18228;SDS011;9239;50.932;3.142;2022-10-31T00:46:17;6.13;;;5.50;;
18228;SDS011;9239;50.932;3.142;2022-10-31T00:48:43;6.27;;;5.60;;
18228;SDS011;9239;50.932;3.142;2022-10-31T00:51:10;6.43;;;5.83;;
18228;SDS011;9239;50.932;3.142;2022-10-31T00:53:37;8.07;;;6.43;;
18228;SDS011;9239;50.932;3.142;2022-10-31T00:56:05;6.60;;;5.90;;
18228;SDS011;9239;50.932;3.142;2022-10-31T00:58:33;7.83;;;6.47;;
18228;SDS011;9239;50.932;3.142;2022-10-31T01:01:00;6.57;;;5.87;;
18228;SDS011;9239;50.932;3.142;2022-10-31T01:03:28;8.27;;;6.77;;
18228;SDS011;9239;50.932;3.142;2022-10-31T01:05:57;8.10;;;7.00;;
18228;SDS011;9239;50.932;3.142;2022-10-31T01:08:25;7.37;;;6.40;;
18228;SDS011;9239;50.932;3.142;2022-10-31T01:10:59;8.60;;;6.60;;
18228;SDS011;9239;50.932;3.142;2022-10-31T01:13:26;9.40;;;6.57;;
18228;SDS011;9239;50.932;3.142;2022-10-31T01:15:55;7.27;;;6.50;;
18228;SDS011;9239;50.932;3.142;2022-10-31T01:18:25;6.63;;;5.77;;
18228;SDS011;9239;50.932;3.142;2022-10-31T01:21:03;7.93;;;6.80;;
18228;SDS011;9239;50.932;3.142;2022-10-31T01:23:31;8.37;;;6.43;;
18228;SDS011;9239;50.932;3.142;2022-10-31T01:25:59;7.80;;;7.00;;
18228;SDS011;9239;50.932;3.142;2022-10-31T01:28:31;7.07;;;6.30;;
18228;SDS011;9239;50.932;3.142;2022-10-31T01:31:04;6.60;;;6.00;;
18228;SDS011;9239;50.932;3.142;2022-10-31T01:33:32;8.17;;;7.37;;
18228;SDS011;9239;50.932;3.142;2022-10-31T01:35:59;7.70;;;6.90;;
18228;SDS011;9239;50.932;3.142;2022-10-31T01:38:27;9.03;;;6.87;;
18228;SDS011;9239;50.932;3.142;2022-10-31T01:40:54;7.10;;;6.50;;
18228;SDS011;9239;50.932;3.142;2022-10-31T01:43:20;6.37;;;5.77;;
18228;SDS011;9239;50.932;3.142;2022-10-31T01:45:50;7.87;;;6.57;;
18228;SDS011;9239;50.932;3.142;2022-10-31T01:48:22;7.30;;;6.70;;
18228;SDS011;9239;50.932;3.142;2022-10-31T01:50:56;8.17;;;7.00;;
18228;SDS011;9239;50.932;3.142;2022-10-31T01:53:23;8.63;;;6.60;;
18228;SDS011;9239;50.932;3.142;2022-10-31T01:55:50;8.17;;;6.00;;
18228;SDS011;9239;50.932;3.142;2022-10-31T01:58:18;6.67;;;6.03;;
18228;SDS011;9239;50.932;3.142;2022-10-31T02:00:49;8.73;;;6.60;;
18228;SDS011;9239;50.932;3.142;2022-10-31T02:03:21;7.73;;;7.03;;
18228;SDS011;9239;50.932;3.142;2022-10-31T02:05:49;7.33;;;6.63;;
18228;SDS011;9239;50.932;3.142;2022-10-31T02:08:18;10.00;;;6.57;;
18228;SDS011;9239;50.932;3.142;2022-10-31T02:10:49;8.03;;;6.67;;
18228;SDS011;9239;50.932;3.142;2022-10-31T02:13:16;9.33;;;5.80;;
18228;SDS011;9239;50.932;3.142;2022-10-31T02:15:45;6.67;;;6.07;;
18228;SDS011;9239;50.932;3.142;2022-10-31T02:18:16;7.10;;;6.40;;
18228;SDS011;9239;50.932;3.142;2022-10-31T02:20:48;6.93;;;5.97;;
18228;SDS011;9239;50.932;3.142;2022-10-31T02:23:31;6.27;;;5.67;;
18228;SDS011;9239;50.932;3.142;2022-10-31T02:32:26;8.03;;;6.10;;
18228;SDS011;9239;50.932;3.142;2022-10-31T02:34:57;6.23;;;5.17;;
18228;SDS011;9239;50.932;3.142;2022-10-31T02:37:34;6.60;;;5.93;;
18228;SDS011;9239;50.932;3.142;2022-10-31T02:40:10;6.53;;;5.83;;
18228;SDS011;9239;50.932;3.142;2022-10-31T02:42:46;6.23;;;5.63;;
18228;SDS011;9239;50.932;3.142;2022-10-31T02:45:19;6.17;;;5.43;;
18228;SDS011;9239;50.932;3.142;2022-10-31T02:47:52;7.70;;;6.90;;
18228;SDS011;9239;50.932;3.142;2022-10-31T02:50:21;6.87;;;6.27;;
18228;SDS011;9239;50.932;3.142;2022-10-31T02:52:52;9.70;;;5.83;;
18228;SDS011;9239;50.932;3.142;2022-10-31T02:58:13;6.90;;;5.87;;
18228;SDS011;9239;50.932;3.142;2022-10-31T03:00:45;6.70;;;6.10;;
18228;SDS011;9239;50.932;3.142;2022-10-31T03:03:26;7.40;;;6.10;;
18228;SDS011;9239;50.932;3.142;2022-10-31T03:06:01;7.30;;;6.60;;
18228;SDS011;9239;50.932;3.142;2022-10-31T03:08:35;6.33;;;5.67;;
18228;SDS011;9239;50.932;3.142;2022-10-31T03:11:08;7.17;;;6.10;;
18228;SDS011;9239;50.932;3.142;2022-10-31T03:13:38;7.40;;;6.70;;
18228;SDS011;9239;50.932;3.142;2022-10-31T03:16:08;8.43;;;6.20;;
18228;SDS011;9239;50.932;3.142;2022-10-31T03:18:42;8.60;;;7.03;;
18228;SDS011;9239;50.932;3.142;2022-10-31T03:21:13;8.20;;;6.10;;
18228;SDS011;9239;50.932;3.142;2022-10-31T03:23:44;7.37;;;6.40;;
18228;SDS011;9239;50.932;3.142;2022-10-31T03:26:13;7.27;;;6.07;;
18228;SDS011;9239;50.932;3.142;2022-10-31T03:28:43;8.10;;;6.43;;
18228;SDS011;9239;50.932;3.142;2022-10-31T03:31:12;7.07;;;6.10;;
18228;SDS011;9239;50.932;3.142;2022-10-31T03:33:45;7.83;;;6.70;;
18228;SDS011;9239;50.932;3.142;2022-10-31T03:36:14;8.97;;;6.83;;
18228;SDS011;9239;50.932;3.142;2022-10-31T03:38:42;8.37;;;6.47;;
18228;SDS011;9239;50.932;3.142;2022-10-31T03:41:13;10.63;;;7.80;;
18228;SDS011;9239;50.932;3.142;2022-10-31T03:43:45;7.60;;;6.90;;
18228;SDS011;9239;50.932;3.142;2022-10-31T03:46:18;7.53;;;6.73;;
18228;SDS011;9239;50.932;3.142;2022-10-31T03:48:46;8.80;;;6.93;;
18228;SDS011;9239;50.932;3.142;2022-10-31T03:51:15;7.30;;;6.60;;
18228;SDS011;9239;50.932;3.142;2022-10-31T03:53:48;9.93;;;7.17;;
18228;SDS011;9239;50.932;3.142;2022-10-31T03:56:21;8.37;;;7.63;;
18228;SDS011;9239;50.932;3.142;2022-10-31T03:58:56;7.37;;;6.70;;
18228;SDS011;9239;50.932;3.142;2022-10-31T04:01:26;7.60;;;6.73;;
18228;SDS011;9239;50.932;3.142;2022-10-31T04:03:57;7.20;;;6.50;;
18228;SDS011;9239;50.932;3.142;2022-10-31T04:06:25;7.93;;;7.13;;
18228;SDS011;9239;50.932;3.142;2022-10-31T04:08:53;7.47;;;6.70;;
18228;SDS011;9239;50.932;3.142;2022-10-31T04:11:25;8.63;;;7.10;;
18228;SDS011;9239;50.932;3.142;2022-10-31T04:13:57;7.60;;;6.80;;
18228;SDS011;9239;50.932;3.142;2022-10-31T04:16:26;10.40;;;7.47;;
18228;SDS011;9239;50.932;3.142;2022-10-31T04:18:53;7.47;;;6.77;;
18228;SDS011;9239;50.932;3.142;2022-10-31T04:21:25;7.57;;;6.77;;
18228;SDS011;9239;50.932;3.142;2022-10-31T04:23:53;10.23;;;7.57;;
18228;SDS011;9239;50.932;3.142;2022-10-31T04:26:20;7.67;;;6.87;;
18228;SDS011;9239;50.932;3.142;2022-10-31T04:28:47;9.17;;;7.50;;
18228;SDS011;9239;50.932;3.142;2022-10-31T04:31:14;8.60;;;7.63;;
18228;SDS011;9239;50.932;3.142;2022-10-31T04:33:41;8.53;;;7.67;;
18228;SDS011;9239;50.932;3.142;2022-10-31T04:36:08;8.80;;;7.37;;
18228;SDS011;9239;50.932;3.142;2022-10-31T04:38:36;10.20;;;7.60;;
18228;SDS011;9239;50.932;3.142;2022-10-31T04:41:03;10.00;;;9.00;;
18228;SDS011;9239;50.932;3.142;2022-10-31T04:43:30;8.47;;;7.67;;
18228;SDS011;9239;50.932;3.142;2022-10-31T04:45:57;10.37;;;7.83;;
18228;SDS011;9239;50.932;3.142;2022-10-31T04:48:24;8.07;;;6.83;;
18228;SDS011;9239;50.932;3.142;2022-10-31T04:50:51;10.23;;;9.23;;
18228;SDS011;9239;50.932;3.142;2022-10-31T04:53:18;10.03;;;8.67;;
18228;SDS011;9239;50.932;3.142;2022-10-31T04:55:46;8.10;;;7.30;;
18228;SDS011;9239;50.932;3.142;2022-10-31T04:58:13;7.37;;;6.73;;
18228;SDS011;9239;50.932;3.142;2022-10-31T05:00:40;9.37;;;8.57;;
18228;SDS011;9239;50.932;3.142;2022-10-31T05:03:07;9.37;;;7.50;;
18228;SDS011;9239;50.932;3.142;2022-10-31T05:05:33;7.00;;;6.30;;
18228;SDS011;9239;50.932;3.142;2022-10-31T05:08:00;9.03;;;7.03;;
18228;SDS011;9239;50.932;3.142;2022-10-31T05:10:28;9.13;;;6.70;;
18228;SDS011;9239;50.932;3.142;2022-10-31T05:12:57;7.40;;;6.70;;
18228;SDS011;9239;50.932;3.142;2022-10-31T05:15:26;8.47;;;7.57;;
18228;SDS011;9239;50.932;3.142;2022-10-31T05:17:54;7.50;;;6.80;;
18228;SDS011;9239;50.932;3.142;2022-10-31T05:20:22;7.00;;;6.13;;
18228;SDS011;9239;50.932;3.142;2022-10-31T05:22:50;7.87;;;6.53;;
18228;SDS011;9239;50.932;3.142;2022-10-31T05:25:19;7.43;;;6.73;;
18228;SDS011;9239;50.932;3.142;2022-10-31T05:27:48;8.63;;;6.87;;
18228;SDS011;9239;50.932;3.142;2022-10-31T05:30:18;8.83;;;6.97;;
18228;SDS011;9239;50.932;3.142;2022-10-31T05:32:47;8.77;;;6.90;;
18228;SDS011;9239;50.932;3.142;2022-10-31T05:35:16;6.87;;;6.17;;
18228;SDS011;9239;50.932;3.142;2022-10-31T05:37:44;9.33;;;6.93;;
18228;SDS011;9239;50.932;3.142;2022-10-31T05:40:12;6.93;;;6.20;;
18228;SDS011;9239;50.932;3.142;2022-10-31T05:42:40;7.53;;;6.73;;
18228;SDS011;9239;50.932;3.142;2022-10-31T05:45:07;8.03;;;6.37;;
18228;SDS011;9239;50.932;3.142;2022-10-31T05:47:36;8.27;;;7.43;;
18228;SDS011;9239;50.932;3.142;2022-10-31T05:50:04;7.03;;;6.43;;
18228;SDS011;9239;50.932;3.142;2022-10-31T05:52:31;8.07;;;6.40;;
18228;SDS011;9239;50.932;3.142;2022-10-31T05:54:58;7.20;;;6.50;;
18228;SDS011;9239;50.932;3.142;2022-10-31T05:57:25;8.33;;;7.53;;
18228;SDS011;9239;50.932;3.142;2022-10-31T05:59:52;7.90;;;7.17;;
18228;SDS011;9239;50.932;3.142;2022-10-31T06:02:18;6.53;;;5.93;;
18228;SDS011;9239;50.932;3.142;2022-10-31T06:04:47;7.77;;;6.50;;
18228;SDS011;9239;50.932;3.142;2022-10-31T06:07:14;6.57;;;5.93;;
18228;SDS011;9239;50.932;3.142;2022-10-31T06:09:41;7.73;;;6.57;;
18228;SDS011;9239;50.932;3.142;2022-10-31T06:12:08;10.93;;;7.43;;
18228;SDS011;9239;50.932;3.142;2022-10-31T06:14:35;8.87;;;7.10;;
18228;SDS011;9239;50.932;3.142;2022-10-31T06:17:01;9.70;;;7.40;;
18228;SDS011;9239;50.932;3.142;2022-10-31T06:19:28;7.93;;;7.07;;
18228;SDS011;9239;50.932;3.142;2022-10-31T06:21:56;8.20;;;7.40;;
18228;SDS011;9239;50.932;3.142;2022-10-31T06:24:23;8.83;;;6.90;;
18228;SDS011;9239;50.932;3.142;2022-10-31T06:26:50;8.07;;;7.23;;
18228;SDS011;9239;50.932;3.142;2022-10-31T06:29:17;8.83;;;7.40;;
18228;SDS011;9239;50.932;3.142;2022-10-31T06:31:44;8.30;;;6.77;;
18228;SDS011;9239;50.932;3.142;2022-10-31T06:34:11;10.13;;;7.43;;
18228;SDS011;9239;50.932;3.142;2022-10-31T06:36:38;8.80;;;7.90;;
18228;SDS011;9239;50.932;3.142;2022-10-31T06:39:06;7.77;;;6.83;;
18228;SDS011;9239;50.932;3.142;2022-10-31T06:41:33;12.27;;;8.60;;
18228;SDS011;9239;50.932;3.142;2022-10-31T06:44:01;8.27;;;7.30;;
18228;SDS011;9239;50.932;3.142;2022-10-31T06:46:28;16.80;;;8.83;;
18228;SDS011;9239;50.932;3.142;2022-10-31T06:48:55;13.03;;;7.73;;
18228;SDS011;9239;50.932;3.142;2022-10-31T06:51:22;8.90;;;7.23;;
18228;SDS011;9239;50.932;3.142;2022-10-31T06:53:48;9.00;;;7.43;;
18228;SDS011;9239;50.932;3.142;2022-10-31T06:56:17;9.23;;;7.57;;
18228;SDS011;9239;50.932;3.142;2022-10-31T06:58:44;9.57;;;7.50;;
18228;SDS011;9239;50.932;3.142;2022-10-31T07:01:10;9.20;;;8.13;;
18228;SDS011;9239;50.932;3.142;2022-10-31T07:03:37;10.63;;;9.17;;
18228;SDS011;9239;50.932;3.142;2022-10-31T07:06:04;10.03;;;8.80;;
18228;SDS011;9239;50.932;3.142;2022-10-31T07:08:31;10.07;;;8.73;;
18228;SDS011;9239;50.932;3.142;2022-10-31T07:10:58;8.60;;;7.70;;
18228;SDS011;9239;50.932;3.142;2022-10-31T07:13:26;9.67;;;8.00;;
18228;SDS011;9239;50.932;3.142;2022-10-31T07:15:54;8.40;;;7.60;;
18228;SDS011;9239;50.932;3.142;2022-10-31T07:18:25;9.37;;;7.80;;
18228;SDS011;9239;50.932;3.142;2022-10-31T07:20:52;10.40;;;9.27;;
18228;SDS011;9239;50.932;3.142;2022-10-31T07:23:19;12.00;;;8.33;;
18228;SDS011;9239;50.932;3.142;2022-10-31T07:25:47;11.97;;;8.87;;
18228;SDS011;9239;50.932;3.142;2022-10-31T07:28:14;8.90;;;8.00;;
18228;SDS011;9239;50.932;3.142;2022-10-31T07:30:42;11.50;;;8.80;;
18228;SDS011;9239;50.932;3.142;2022-10-31T07:33:09;10.97;;;9.87;;
18228;SDS011;9239;50.932;3.142;2022-10-31T07:35:36;11.13;;;9.87;;
18228;SDS011;9239;50.932;3.142;2022-10-31T07:38:06;12.57;;;10.60;;
18228;SDS011;9239;50.932;3.142;2022-10-31T07:40:34;12.90;;;10.47;;
18228;SDS011;9239;50.932;3.142;2022-10-31T07:43:01;14.97;;;13.03;;
18228;SDS011;9239;50.932;3.142;2022-10-31T07:45:28;11.60;;;10.33;;
18228;SDS011;9239;50.932;3.142;2022-10-31T07:47:56;11.57;;;9.83;;
18228;SDS011;9239;50.932;3.142;2022-10-31T07:50:24;14.70;;;11.77;;
18228;SDS011;9239;50.932;3.142;2022-10-31T07:52:58;12.30;;;9.87;;
18228;SDS011;9239;50.932;3.142;2022-10-31T07:55:26;11.00;;;9.87;;
18228;SDS011;9239;50.932;3.142;2022-10-31T07:57:57;12.87;;;9.70;;
18228;SDS011;9239;50.932;3.142;2022-10-31T08:00:24;12.20;;;9.70;;
18228;SDS011;9239;50.932;3.142;2022-10-31T08:02:59;13.63;;;9.73;;
18228;SDS011;9239;50.932;3.142;2022-10-31T08:05:27;10.27;;;8.97;;
18228;SDS011;9239;50.932;3.142;2022-10-31T08:07:56;13.00;;;11.03;;
18228;SDS011;9239;50.932;3.142;2022-10-31T08:10:24;12.23;;;10.53;;
18228;SDS011;9239;50.932;3.142;2022-10-31T08:12:55;13.87;;;11.33;;
18228;SDS011;9239;50.932;3.142;2022-10-31T08:15:22;14.20;;;12.23;;
18228;SDS011;9239;50.932;3.142;2022-10-31T08:17:49;12.43;;;10.73;;
18228;SDS011;9239;50.932;3.142;2022-10-31T08:20:18;14.37;;;12.00;;
18228;SDS011;9239;50.932;3.142;2022-10-31T08:22:52;13.67;;;11.53;;
18228;SDS011;9239;50.932;3.142;2022-10-31T08:25:23;14.30;;;12.23;;
18228;SDS011;9239;50.932;3.142;2022-10-31T08:27:50;16.20;;;13.50;;
18228;SDS011;9239;50.932;3.142;2022-10-31T08:30:18;15.47;;;13.00;;
18228;SDS011;9239;50.932;3.142;2022-10-31T08:32:46;17.60;;;12.27;;
18228;SDS011;9239;50.932;3.142;2022-10-31T08:35:13;14.53;;;13.03;;
18228;SDS011;9239;50.932;3.142;2022-10-31T08:37:42;17.57;;;13.20;;
18228;SDS011;9239;50.932;3.142;2022-10-31T08:40:09;15.63;;;12.73;;
18228;SDS011;9239;50.932;3.142;2022-10-31T08:42:38;15.93;;;11.70;;
18228;SDS011;9239;50.932;3.142;2022-10-31T08:45:05;15.63;;;12.70;;
18228;SDS011;9239;50.932;3.142;2022-10-31T08:47:32;16.63;;;11.73;;
18228;SDS011;9239;50.932;3.142;2022-10-31T08:49:59;15.45;;;13.55;;
18228;SDS011;9239;50.932;3.142;2022-10-31T08:52:25;16.87;;;12.37;;
18228;SDS011;9239;50.932;3.142;2022-10-31T08:54:53;15.73;;;11.80;;
18228;SDS011;9239;50.932;3.142;2022-10-31T08:57:20;15.57;;;13.43;;
18228;SDS011;9239;50.932;3.142;2022-10-31T08:59:47;14.55;;;12.27;;
18228;SDS011;9239;50.932;3.142;2022-10-31T09:02:14;14.73;;;10.88;;
18228;SDS011;9239;50.932;3.142;2022-10-31T09:04:41;17.02;;;11.73;;
18228;SDS011;9239;50.932;3.142;2022-10-31T09:07:08;15.45;;;11.23;;
18228;SDS011;9239;50.932;3.142;2022-10-31T09:09:35;12.85;;;11.40;;
18228;SDS011;9239;50.932;3.142;2022-10-31T09:12:03;13.13;;;10.82;;
18228;SDS011;9239;50.932;3.142;2022-10-31T09:14:30;12.65;;;11.15;;
18228;SDS011;9239;50.932;3.142;2022-10-31T09:16:57;17.38;;;11.32;;
18228;SDS011;9239;50.932;3.142;2022-10-31T09:19:24;13.60;;;10.75;;
18228;SDS011;9239;50.932;3.142;2022-10-31T09:21:52;13.15;;;11.68;;
18228;SDS011;9239;50.932;3.142;2022-10-31T09:24:19;14.32;;;10.45;;
18228;SDS011;9239;50.932;3.142;2022-10-31T09:26:46;12.38;;;11.07;;
18228;SDS011;9239;50.932;3.142;2022-10-31T09:29:14;14.77;;;11.68;;
18228;SDS011;9239;50.932;3.142;2022-10-31T09:31:41;12.07;;;10.23;;
18228;SDS011;9239;50.932;3.142;2022-10-31T09:34:08;14.63;;;11.25;;
18228;SDS011;9239;50.932;3.142;2022-10-31T09:36:35;16.52;;;11.32;;
18228;SDS011;9239;50.932;3.142;2022-10-31T09:39:02;13.30;;;11.07;;
18228;SDS011;9239;50.932;3.142;2022-10-31T09:41:31;14.70;;;11.32;;
18228;SDS011;9239;50.932;3.142;2022-10-31T09:44:07;13.00;;;10.23;;
18228;SDS011;9239;50.932;3.142;2022-10-31T09:46:47;12.82;;;10.65;;
18228;SDS011;9239;50.932;3.142;2022-10-31T09:49:24;15.32;;;11.38;;
18228;SDS011;9239;50.932;3.142;2022-10-31T09:52:11;13.13;;;10.65;;
18228;SDS011;9239;50.932;3.142;2022-10-31T09:54:46;13.63;;;10.77;;
18228;SDS011;9239;50.932;3.142;2022-10-31T09:57:23;12.48;;;10.68;;
18228;SDS011;9239;50.932;3.142;2022-10-31T09:59:53;12.52;;;10.50;;
18228;SDS011;9239;50.932;3.142;2022-10-31T10:02:23;12.60;;;10.80;;
18228;SDS011;9239;50.932;3.142;2022-10-31T10:04:54;13.98;;;10.48;;
18228;SDS011;9239;50.932;3.142;2022-10-31T10:07:29;11.55;;;10.35;;
18228;SDS011;9239;50.932;3.142;2022-10-31T10:10:12;13.10;;;11.52;;
18228;SDS011;9239;50.932;3.142;2022-10-31T10:12:49;11.32;;;10.18;;
18228;SDS011;9239;50.932;3.142;2022-10-31T10:15:32;13.32;;;10.00;;
18228;SDS011;9239;50.932;3.142;2022-10-31T10:18:14;15.80;;;10.55;;
18228;SDS011;9239;50.932;3.142;2022-10-31T10:20:54;10.98;;;9.85;;
18228;SDS011;9239;50.932;3.142;2022-10-31T10:23:34;10.98;;;9.88;;
18228;SDS011;9239;50.932;3.142;2022-10-31T10:26:07;10.43;;;9.45;;
18228;SDS011;9239;50.932;3.142;2022-10-31T10:28:41;12.80;;;9.20;;
18228;SDS011;9239;50.932;3.142;2022-10-31T10:31:13;10.35;;;9.35;;
18228;SDS011;9239;50.932;3.142;2022-10-31T10:33:44;10.30;;;9.30;;
18228;SDS011;9239;50.932;3.142;2022-10-31T10:36:20;10.48;;;9.38;;
18228;SDS011;9239;50.932;3.142;2022-10-31T10:38:53;12.80;;;10.07;;
18228;SDS011;9239;50.932;3.142;2022-10-31T10:41:24;10.18;;;9.00;;
18228;SDS011;9239;50.932;3.142;2022-10-31T10:43:56;11.85;;;9.02;;
18228;SDS011;9239;50.932;3.142;2022-10-31T10:46:24;10.45;;;9.40;;
18228;SDS011;9239;50.932;3.142;2022-10-31T10:49:18;12.95;;;9.43;;
18228;SDS011;9239;50.932;3.142;2022-10-31T10:51:51;13.07;;;9.65;;
18228;SDS011;9239;50.932;3.142;2022-10-31T10:54:38;9.63;;;8.70;;
18228;SDS011;9239;50.932;3.142;2022-10-31T10:57:18;10.70;;;8.52;;
18228;SDS011;9239;50.932;3.142;2022-10-31T10:59:49;10.82;;;7.95;;
18228;SDS011;9239;50.932;3.142;2022-10-31T11:02:17;10.98;;;8.57;;
18228;SDS011;9239;50.932;3.142;2022-10-31T11:04:47;8.40;;;7.57;;
18228;SDS011;9239;50.932;3.142;2022-10-31T11:07:17;8.57;;;7.72;;
18228;SDS011;9239;50.932;3.142;2022-10-31T11:09:44;9.05;;;7.53;;
18228;SDS011;9239;50.932;3.142;2022-10-31T11:12:16;8.45;;;7.55;;
18228;SDS011;9239;50.932;3.142;2022-10-31T11:14:46;12.52;;;8.25;;
18228;SDS011;9239;50.932;3.142;2022-10-31T11:17:19;9.52;;;7.68;;
18228;SDS011;9239;50.932;3.142;2022-10-31T11:20:05;11.73;;;7.47;;
18228;SDS011;9239;50.932;3.142;2022-10-31T11:22:49;7.80;;;6.88;;
18228;SDS011;9239;50.932;3.142;2022-10-31T11:25:26;7.93;;;7.13;;
18228;SDS011;9239;50.932;3.142;2022-10-31T11:28:02;7.75;;;7.00;;
18228;SDS011;9239;50.932;3.142;2022-10-31T11:30:31;7.75;;;7.00;;
18228;SDS011;9239;50.932;3.142;2022-10-31T11:33:11;10.18;;;8.93;;
18228;SDS011;9239;50.932;3.142;2022-10-31T11:35:45;10.13;;;6.93;;
18228;SDS011;9239;50.932;3.142;2022-10-31T11:38:15;7.35;;;6.55;;
18228;SDS011;9239;50.932;3.142;2022-10-31T11:40:51;6.78;;;6.07;;
18228;SDS011;9239;50.932;3.142;2022-10-31T11:43:20;7.57;;;5.55;;
18228;SDS011;9239;50.932;3.142;2022-10-31T11:45:47;6.32;;;4.95;;
18228;SDS011;9239;50.932;3.142;2022-10-31T11:48:16;9.23;;;5.00;;
18228;SDS011;9239;50.932;3.142;2022-10-31T11:50:48;5.50;;;5.00;;
18228;SDS011;9239;50.932;3.142;2022-10-31T11:53:25;5.07;;;4.57;;
18228;SDS011;9239;50.932;3.142;2022-10-31T11:56:04;6.65;;;4.85;;
18228;SDS011;9239;50.932;3.142;2022-10-31T11:58:36;5.53;;;4.93;;
18228;SDS011;9239;50.932;3.142;2022-10-31T12:01:03;6.78;;;4.47;;
18228;SDS011;9239;50.932;3.142;2022-10-31T12:03:37;7.22;;;4.50;;
18228;SDS011;9239;50.932;3.142;2022-10-31T12:06:13;7.05;;;4.43;;
18228;SDS011;9239;50.932;3.142;2022-10-31T12:08:44;6.88;;;4.38;;
18228;SDS011;9239;50.932;3.142;2022-10-31T12:11:16;4.88;;;4.38;;
18228;SDS011;9239;50.932;3.142;2022-10-31T12:14:04;6.72;;;4.65;;
18228;SDS011;9239;50.932;3.142;2022-10-31T12:16:42;5.22;;;4.70;;
18228;SDS011;9239;50.932;3.142;2022-10-31T12:19:15;5.07;;;4.57;;
18228;SDS011;9239;50.932;3.142;2022-10-31T12:21:55;6.55;;;4.53;;
18228;SDS011;9239;50.932;3.142;2022-10-31T12:24:35;7.18;;;5.13;;
18228;SDS011;9239;50.932;3.142;2022-10-31T12:27:27;5.43;;;4.60;;
18228;SDS011;9239;50.932;3.142;2022-10-31T12:35:39;9.95;;;5.10;;
18228;SDS011;9239;50.932;3.142;2022-10-31T12:38:29;7.18;;;5.55;;
18228;SDS011;9239;50.932;3.142;2022-10-31T12:41:07;7.00;;;5.38;;
18228;SDS011;9239;50.932;3.142;2022-10-31T12:43:52;6.93;;;5.68;;
18228;SDS011;9239;50.932;3.142;2022-10-31T12:46:25;7.05;;;6.15;;
18228;SDS011;9239;50.932;3.142;2022-10-31T12:49:09;9.10;;;5.55;;
18228;SDS011;9239;50.932;3.142;2022-10-31T12:51:48;6.93;;;5.50;;
18228;SDS011;9239;50.932;3.142;2022-10-31T12:54:33;11.82;;;6.07;;
18228;SDS011;9239;50.932;3.142;2022-10-31T12:57:12;10.00;;;6.85;;
18228;SDS011;9239;50.932;3.142;2022-10-31T12:59:48;11.15;;;6.63;;
18228;SDS011;9239;50.932;3.142;2022-10-31T13:02:18;10.15;;;7.07;;
18228;SDS011;9239;50.932;3.142;2022-10-31T13:04:50;7.70;;;6.57;;
18228;SDS011;9239;50.932;3.142;2022-10-31T13:07:23;7.32;;;6.47;;
18228;SDS011;9239;50.932;3.142;2022-10-31T13:09:56;13.57;;;8.27;;
18228;SDS011;9239;50.932;3.142;2022-10-31T13:12:27;9.52;;;8.40;;
18228;SDS011;9239;50.932;3.142;2022-10-31T13:14:56;10.35;;;8.88;;
18228;SDS011;9239;50.932;3.142;2022-10-31T13:17:29;9.77;;;7.68;;
18228;SDS011;9239;50.932;3.142;2022-10-31T13:20:04;11.68;;;8.80;;
18228;SDS011;9239;50.932;3.142;2022-10-31T13:22:41;10.57;;;8.85;;
18228;SDS011;9239;50.932;3.142;2022-10-31T13:25:13;13.35;;;9.35;;
18228;SDS011;9239;50.932;3.142;2022-10-31T13:27:44;12.73;;;9.15;;
18228;SDS011;9239;50.932;3.142;2022-10-31T13:30:16;11.20;;;9.00;;
18228;SDS011;9239;50.932;3.142;2022-10-31T13:32:46;9.45;;;8.48;;
18228;SDS011;9239;50.932;3.142;2022-10-31T13:35:18;11.18;;;9.80;;
18228;SDS011;9239;50.932;3.142;2022-10-31T13:37:52;13.40;;;9.85;;
18228;SDS011;9239;50.932;3.142;2022-10-31T13:40:40;12.50;;;9.20;;
18228;SDS011;9239;50.932;3.142;2022-10-31T13:43:17;11.48;;;9.05;;
18228;SDS011;9239;50.932;3.142;2022-10-31T13:45:51;9.77;;;8.70;;
18228;SDS011;9239;50.932;3.142;2022-10-31T13:51:07;12.98;;;9.57;;
18228;SDS011;9239;50.932;3.142;2022-10-31T13:53:36;15.35;;;9.40;;
18228;SDS011;9239;50.932;3.142;2022-10-31T13:56:13;11.40;;;8.43;;
18228;SDS011;9239;50.932;3.142;2022-10-31T13:58:43;13.55;;;8.75;;
18228;SDS011;9239;50.932;3.142;2022-10-31T14:01:27;9.70;;;8.23;;
18228;SDS011;9239;50.932;3.142;2022-10-31T14:03:56;13.00;;;8.65;;
18228;SDS011;9239;50.932;3.142;2022-10-31T14:06:38;10.18;;;8.93;;
18228;SDS011;9239;50.932;3.142;2022-10-31T14:09:21;11.23;;;8.93;;
18228;SDS011;9239;50.932;3.142;2022-10-31T14:11:59;10.68;;;8.73;;
18228;SDS011;9239;50.932;3.142;2022-10-31T14:14:34;12.57;;;9.00;;
18228;SDS011;9239;50.932;3.142;2022-10-31T14:17:15;11.07;;;9.38;;
18228;SDS011;9239;50.932;3.142;2022-10-31T14:20:02;11.95;;;9.23;;
18228;SDS011;9239;50.932;3.142;2022-10-31T14:22:44;14.77;;;9.70;;
18228;SDS011;9239;50.932;3.142;2022-10-31T14:25:27;9.45;;;8.35;;
18228;SDS011;9239;50.932;3.142;2022-10-31T14:27:58;9.50;;;8.32;;
18228;SDS011;9239;50.932;3.142;2022-10-31T14:30:26;15.50;;;8.50;;
18228;SDS011;9239;50.932;3.142;2022-10-31T14:32:55;12.68;;;9.90;;
18228;SDS011;9239;50.932;3.142;2022-10-31T14:35:27;14.43;;;10.05;;
18228;SDS011;9239;50.932;3.142;2022-10-31T14:41:01;12.00;;;9.88;;
18228;SDS011;9239;50.932;3.142;2022-10-31T14:43:47;11.23;;;9.18;;
18228;SDS011;9239;50.932;3.142;2022-10-31T14:46:30;14.93;;;10.38;;
18228;SDS011;9239;50.932;3.142;2022-10-31T14:49:10;12.02;;;10.55;;
18228;SDS011;9239;50.932;3.142;2022-10-31T14:51:45;15.73;;;11.05;;
18228;SDS011;9239;50.932;3.142;2022-10-31T14:54:15;16.30;;;10.68;;
18228;SDS011;9239;50.932;3.142;2022-10-31T14:56:46;14.45;;;10.95;;
18228;SDS011;9239;50.932;3.142;2022-10-31T14:59:19;15.73;;;10.93;;
18228;SDS011;9239;50.932;3.142;2022-10-31T15:01:54;15.57;;;11.32;;
18228;SDS011;9239;50.932;3.142;2022-10-31T15:04:24;17.15;;;12.52;;
18228;SDS011;9239;50.932;3.142;2022-10-31T15:06:54;18.30;;;15.45;;
18228;SDS011;9239;50.932;3.142;2022-10-31T15:09:27;17.17;;;15.48;;
18228;SDS011;9239;50.932;3.142;2022-10-31T15:11:56;16.35;;;14.68;;
18228;SDS011;9239;50.932;3.142;2022-10-31T15:14:26;13.95;;;12.55;;
18228;SDS011;9239;50.932;3.142;2022-10-31T15:16:55;16.23;;;12.13;;
18228;SDS011;9239;50.932;3.142;2022-10-31T15:19:24;15.50;;;13.57;;
18228;SDS011;9239;50.932;3.142;2022-10-31T15:21:54;18.27;;;14.15;;
18228;SDS011;9239;50.932;3.142;2022-10-31T15:24:23;18.77;;;15.80;;
18228;SDS011;9239;50.932;3.142;2022-10-31T15:26:53;17.05;;;14.68;;
18228;SDS011;9239;50.932;3.142;2022-10-31T15:29:23;16.42;;;13.32;;
18228;SDS011;9239;50.932;3.142;2022-10-31T15:31:55;15.85;;;12.63;;
18228;SDS011;9239;50.932;3.142;2022-10-31T15:34:24;15.13;;;12.13;;
18228;SDS011;9239;50.932;3.142;2022-10-31T15:36:56;16.08;;;12.23;;